sensor_id;sensor_type;location;lat;lon;timestamp;P1;durP1;ratioP1;P2;durP2;ratioP2
70132;SDS011;57495;49.922;7.966;2023-09-08T00:01:58;11.00;;;7.53;;
70132;SDS011;57495;49.922;7.966;2023-09-08T00:03:59;11.63;;;8.27;;
70132;SDS011;57495;49.922;7.966;2023-09-08T00:06:01;11.97;;;7.77;;
70132;SDS011;57495;49.922;7.966;2023-09-08T00:08:04;13.00;;;8.25;;
70132;SDS011;57495;49.922;7.966;2023-09-08T00:10:06;12.23;;;8.07;;
70132;SDS011;57495;49.922;7.966;2023-09-08T00:12:08;11.63;;;7.68;;
70132;SDS011;57495;49.922;7.966;2023-09-08T00:14:09;10.10;;;7.47;;
70132;SDS011;57495;49.922;7.966;2023-09-08T00:16:11;10.73;;;7.63;;
70132;SDS011;57495;49.922;7.966;2023-09-08T00:18:12;11.30;;;7.38;;
70132;SDS011;57495;49.922;7.966;2023-09-08T00:20:14;10.25;;;7.35;;
70132;SDS011;57495;49.922;7.966;2023-09-08T00:22:15;10.82;;;6.90;;
70132;SDS011;57495;49.922;7.966;2023-09-08T00:24:18;10.52;;;7.13;;
70132;SDS011;57495;49.922;7.966;2023-09-08T00:26:19;11.83;;;7.43;;
70132;SDS011;57495;49.922;7.966;2023-09-08T00:28:20;10.52;;;6.75;;
70132;SDS011;57495;49.922;7.966;2023-09-08T00:30:21;9.82;;;6.80;;
70132;SDS011;57495;49.922;7.966;2023-09-08T00:32:22;10.50;;;7.10;;
70132;SDS011;57495;49.922;7.966;2023-09-08T00:34:23;9.70;;;6.95;;
70132;SDS011;57495;49.922;7.966;2023-09-08T00:36:24;12.60;;;7.03;;
70132;SDS011;57495;49.922;7.966;2023-09-08T00:38:26;11.55;;;7.35;;
70132;SDS011;57495;49.922;7.966;2023-09-08T00:40:28;9.63;;;7.38;;
70132;SDS011;57495;49.922;7.966;2023-09-08T00:42:30;9.68;;;6.93;;
70132;SDS011;57495;49.922;7.966;2023-09-08T00:44:31;10.85;;;7.00;;
70132;SDS011;57495;49.922;7.966;2023-09-08T00:46:32;9.00;;;6.47;;
70132;SDS011;57495;49.922;7.966;2023-09-08T00:48:34;10.10;;;7.00;;
70132;SDS011;57495;49.922;7.966;2023-09-08T00:50:37;10.65;;;7.32;;
70132;SDS011;57495;49.922;7.966;2023-09-08T00:52:39;13.68;;;7.53;;
70132;SDS011;57495;49.922;7.966;2023-09-08T00:54:41;9.77;;;7.00;;
70132;SDS011;57495;49.922;7.966;2023-09-08T00:56:44;9.90;;;7.70;;
70132;SDS011;57495;49.922;7.966;2023-09-08T00:58:45;11.57;;;7.25;;
70132;SDS011;57495;49.922;7.966;2023-09-08T01:00:47;10.07;;;6.85;;
70132;SDS011;57495;49.922;7.966;2023-09-08T01:02:49;8.75;;;6.07;;
70132;SDS011;57495;49.922;7.966;2023-09-08T01:04:50;8.87;;;6.20;;
70132;SDS011;57495;49.922;7.966;2023-09-08T01:06:51;9.65;;;6.00;;
70132;SDS011;57495;49.922;7.966;2023-09-08T01:08:54;9.43;;;5.43;;
70132;SDS011;57495;49.922;7.966;2023-09-08T01:10:56;9.13;;;5.68;;
70132;SDS011;57495;49.922;7.966;2023-09-08T01:12:59;11.40;;;6.00;;
70132;SDS011;57495;49.922;7.966;2023-09-08T01:15:01;7.93;;;5.70;;
70132;SDS011;57495;49.922;7.966;2023-09-08T01:17:02;10.35;;;6.60;;
70132;SDS011;57495;49.922;7.966;2023-09-08T01:19:03;10.38;;;6.70;;
70132;SDS011;57495;49.922;7.966;2023-09-08T01:21:13;9.90;;;6.63;;
70132;SDS011;57495;49.922;7.966;2023-09-08T01:23:37;9.77;;;6.22;;
70132;SDS011;57495;49.922;7.966;2023-09-08T01:25:50;10.63;;;6.22;;
70132;SDS011;57495;49.922;7.966;2023-09-08T01:27:57;11.13;;;6.30;;
70132;SDS011;57495;49.922;7.966;2023-09-08T01:30:01;10.88;;;6.63;;
70132;SDS011;57495;49.922;7.966;2023-09-08T01:32:03;9.90;;;6.70;;
70132;SDS011;57495;49.922;7.966;2023-09-08T01:34:05;9.32;;;6.85;;
70132;SDS011;57495;49.922;7.966;2023-09-08T01:36:07;9.68;;;6.70;;
70132;SDS011;57495;49.922;7.966;2023-09-08T01:38:08;10.18;;;7.00;;
70132;SDS011;57495;49.922;7.966;2023-09-08T01:40:09;8.55;;;6.47;;
70132;SDS011;57495;49.922;7.966;2023-09-08T01:42:12;10.00;;;6.70;;
70132;SDS011;57495;49.922;7.966;2023-09-08T01:44:13;10.88;;;6.25;;
70132;SDS011;57495;49.922;7.966;2023-09-08T01:46:14;9.97;;;6.53;;
70132;SDS011;57495;49.922;7.966;2023-09-08T01:48:15;9.85;;;7.30;;
70132;SDS011;57495;49.922;7.966;2023-09-08T01:50:16;11.65;;;6.97;;
70132;SDS011;57495;49.922;7.966;2023-09-08T01:52:21;11.10;;;7.10;;
70132;SDS011;57495;49.922;7.966;2023-09-08T01:54:23;10.85;;;7.55;;
70132;SDS011;57495;49.922;7.966;2023-09-08T01:56:24;12.63;;;7.50;;
70132;SDS011;57495;49.922;7.966;2023-09-08T01:58:27;11.30;;;7.47;;
70132;SDS011;57495;49.922;7.966;2023-09-08T02:00:30;10.15;;;7.47;;
70132;SDS011;57495;49.922;7.966;2023-09-08T02:02:32;11.82;;;8.15;;
70132;SDS011;57495;49.922;7.966;2023-09-08T02:04:33;11.23;;;8.02;;
70132;SDS011;57495;49.922;7.966;2023-09-08T02:06:35;12.00;;;7.37;;
70132;SDS011;57495;49.922;7.966;2023-09-08T02:08:36;11.50;;;7.35;;
70132;SDS011;57495;49.922;7.966;2023-09-08T02:10:39;14.85;;;6.85;;
70132;SDS011;57495;49.922;7.966;2023-09-08T02:12:40;10.82;;;7.63;;
70132;SDS011;57495;49.922;7.966;2023-09-08T02:14:43;11.55;;;8.18;;
70132;SDS011;57495;49.922;7.966;2023-09-08T02:16:44;11.03;;;7.40;;
70132;SDS011;57495;49.922;7.966;2023-09-08T02:18:46;10.50;;;7.47;;
70132;SDS011;57495;49.922;7.966;2023-09-08T02:20:46;10.90;;;7.38;;
70132;SDS011;57495;49.922;7.966;2023-09-08T02:22:49;11.27;;;7.47;;
70132;SDS011;57495;49.922;7.966;2023-09-08T02:24:51;11.07;;;7.60;;
70132;SDS011;57495;49.922;7.966;2023-09-08T02:26:52;11.45;;;7.47;;
70132;SDS011;57495;49.922;7.966;2023-09-08T02:28:55;9.50;;;7.55;;
70132;SDS011;57495;49.922;7.966;2023-09-08T02:30:58;12.85;;;8.30;;
70132;SDS011;57495;49.922;7.966;2023-09-08T02:32:59;11.67;;;7.90;;
70132;SDS011;57495;49.922;7.966;2023-09-08T02:35:03;12.35;;;7.60;;
70132;SDS011;57495;49.922;7.966;2023-09-08T02:37:05;11.45;;;7.38;;
70132;SDS011;57495;49.922;7.966;2023-09-08T02:39:06;9.70;;;6.97;;
70132;SDS011;57495;49.922;7.966;2023-09-08T02:41:07;9.73;;;7.00;;
70132;SDS011;57495;49.922;7.966;2023-09-08T02:43:08;14.23;;;7.97;;
70132;SDS011;57495;49.922;7.966;2023-09-08T02:45:10;10.98;;;7.60;;
70132;SDS011;57495;49.922;7.966;2023-09-08T02:47:13;11.40;;;7.90;;
70132;SDS011;57495;49.922;7.966;2023-09-08T02:49:14;11.70;;;8.00;;
70132;SDS011;57495;49.922;7.966;2023-09-08T02:51:16;11.73;;;7.40;;
70132;SDS011;57495;49.922;7.966;2023-09-08T02:53:16;10.35;;;7.32;;
70132;SDS011;57495;49.922;7.966;2023-09-08T02:55:18;11.47;;;7.63;;
70132;SDS011;57495;49.922;7.966;2023-09-08T02:57:19;11.10;;;7.60;;
70132;SDS011;57495;49.922;7.966;2023-09-08T02:59:20;10.77;;;7.13;;
70132;SDS011;57495;49.922;7.966;2023-09-08T03:01:21;10.48;;;7.03;;
70132;SDS011;57495;49.922;7.966;2023-09-08T03:03:24;10.48;;;7.30;;
70132;SDS011;57495;49.922;7.966;2023-09-08T03:05:26;11.10;;;7.22;;
70132;SDS011;57495;49.922;7.966;2023-09-08T03:07:27;9.38;;;6.47;;
70132;SDS011;57495;49.922;7.966;2023-09-08T03:09:28;11.50;;;7.27;;
70132;SDS011;57495;49.922;7.966;2023-09-08T03:11:31;14.32;;;7.10;;
70132;SDS011;57495;49.922;7.966;2023-09-08T03:13:33;11.85;;;7.85;;
70132;SDS011;57495;49.922;7.966;2023-09-08T03:15:35;10.60;;;6.75;;
70132;SDS011;57495;49.922;7.966;2023-09-08T03:17:35;11.27;;;6.97;;
70132;SDS011;57495;49.922;7.966;2023-09-08T03:19:38;12.68;;;7.50;;
70132;SDS011;57495;49.922;7.966;2023-09-08T03:21:40;12.80;;;7.50;;
70132;SDS011;57495;49.922;7.966;2023-09-08T03:23:42;11.00;;;8.07;;
70132;SDS011;57495;49.922;7.966;2023-09-08T03:25:44;10.93;;;7.40;;
70132;SDS011;57495;49.922;7.966;2023-09-08T03:27:46;11.15;;;6.45;;
70132;SDS011;57495;49.922;7.966;2023-09-08T03:29:46;11.00;;;7.88;;
70132;SDS011;57495;49.922;7.966;2023-09-08T03:31:48;11.30;;;7.63;;
70132;SDS011;57495;49.922;7.966;2023-09-08T03:33:48;16.10;;;8.75;;
70132;SDS011;57495;49.922;7.966;2023-09-08T03:35:51;13.17;;;8.33;;
70132;SDS011;57495;49.922;7.966;2023-09-08T03:37:52;11.68;;;8.60;;
70132;SDS011;57495;49.922;7.966;2023-09-08T03:39:54;13.43;;;9.18;;
70132;SDS011;57495;49.922;7.966;2023-09-08T03:41:55;14.30;;;9.23;;
70132;SDS011;57495;49.922;7.966;2023-09-08T03:43:56;14.52;;;10.18;;
70132;SDS011;57495;49.922;7.966;2023-09-08T03:45:58;14.37;;;9.50;;
70132;SDS011;57495;49.922;7.966;2023-09-08T03:47:59;12.98;;;9.63;;
70132;SDS011;57495;49.922;7.966;2023-09-08T03:50:01;14.55;;;9.15;;
70132;SDS011;57495;49.922;7.966;2023-09-08T03:52:04;13.55;;;9.18;;
70132;SDS011;57495;49.922;7.966;2023-09-08T03:54:05;13.88;;;8.95;;
70132;SDS011;57495;49.922;7.966;2023-09-08T03:56:07;12.83;;;8.43;;
70132;SDS011;57495;49.922;7.966;2023-09-08T03:58:08;12.90;;;8.07;;
70132;SDS011;57495;49.922;7.966;2023-09-08T04:00:10;12.55;;;8.30;;
70132;SDS011;57495;49.922;7.966;2023-09-08T04:02:11;14.77;;;8.13;;
70132;SDS011;57495;49.922;7.966;2023-09-08T04:04:13;11.25;;;7.80;;
70132;SDS011;57495;49.922;7.966;2023-09-08T04:06:14;12.90;;;8.33;;
70132;SDS011;57495;49.922;7.966;2023-09-08T04:08:17;11.23;;;8.10;;
70132;SDS011;57495;49.922;7.966;2023-09-08T04:10:18;13.30;;;8.35;;
70132;SDS011;57495;49.922;7.966;2023-09-08T04:12:20;11.30;;;7.35;;
70132;SDS011;57495;49.922;7.966;2023-09-08T04:14:21;10.60;;;6.85;;
70132;SDS011;57495;49.922;7.966;2023-09-08T04:16:23;11.87;;;7.63;;
70132;SDS011;57495;49.922;7.966;2023-09-08T04:18:25;12.05;;;8.07;;
70132;SDS011;57495;49.922;7.966;2023-09-08T04:20:27;12.20;;;8.25;;
70132;SDS011;57495;49.922;7.966;2023-09-08T04:22:28;12.73;;;8.45;;
70132;SDS011;57495;49.922;7.966;2023-09-08T04:24:30;11.73;;;8.10;;
70132;SDS011;57495;49.922;7.966;2023-09-08T04:26:36;13.30;;;9.27;;
70132;SDS011;57495;49.922;7.966;2023-09-08T04:28:36;14.07;;;9.48;;
70132;SDS011;57495;49.922;7.966;2023-09-08T04:30:38;14.07;;;9.67;;
70132;SDS011;57495;49.922;7.966;2023-09-08T04:32:40;13.93;;;9.48;;
70132;SDS011;57495;49.922;7.966;2023-09-08T04:34:41;14.30;;;8.95;;
70132;SDS011;57495;49.922;7.966;2023-09-08T04:36:42;14.20;;;9.43;;
70132;SDS011;57495;49.922;7.966;2023-09-08T04:38:44;14.93;;;9.98;;
70132;SDS011;57495;49.922;7.966;2023-09-08T04:40:46;16.47;;;9.20;;
70132;SDS011;57495;49.922;7.966;2023-09-08T04:42:48;12.75;;;8.77;;
70132;SDS011;57495;49.922;7.966;2023-09-08T04:44:49;13.63;;;9.98;;
70132;SDS011;57495;49.922;7.966;2023-09-08T04:46:51;14.73;;;8.98;;
70132;SDS011;57495;49.922;7.966;2023-09-08T04:48:53;13.55;;;9.10;;
70132;SDS011;57495;49.922;7.966;2023-09-08T04:50:54;14.13;;;9.03;;
70132;SDS011;57495;49.922;7.966;2023-09-08T04:52:56;15.93;;;9.25;;
70132;SDS011;57495;49.922;7.966;2023-09-08T04:54:57;15.00;;;10.32;;
70132;SDS011;57495;49.922;7.966;2023-09-08T04:57:00;14.88;;;9.93;;
70132;SDS011;57495;49.922;7.966;2023-09-08T04:59:02;13.85;;;8.98;;
70132;SDS011;57495;49.922;7.966;2023-09-08T05:01:04;13.27;;;9.03;;
70132;SDS011;57495;49.922;7.966;2023-09-08T05:03:05;12.75;;;8.52;;
70132;SDS011;57495;49.922;7.966;2023-09-08T05:05:07;12.85;;;9.00;;
70132;SDS011;57495;49.922;7.966;2023-09-08T05:07:09;11.30;;;8.43;;
70132;SDS011;57495;49.922;7.966;2023-09-08T05:09:12;16.15;;;8.23;;
70132;SDS011;57495;49.922;7.966;2023-09-08T05:11:14;11.97;;;7.93;;
70132;SDS011;57495;49.922;7.966;2023-09-08T05:13:16;13.57;;;7.85;;
70132;SDS011;57495;49.922;7.966;2023-09-08T05:15:18;12.40;;;8.10;;
70132;SDS011;57495;49.922;7.966;2023-09-08T05:17:21;14.05;;;9.45;;
70132;SDS011;57495;49.922;7.966;2023-09-08T05:19:22;16.15;;;8.50;;
70132;SDS011;57495;49.922;7.966;2023-09-08T05:21:24;14.10;;;9.48;;
70132;SDS011;57495;49.922;7.966;2023-09-08T05:23:25;12.63;;;8.90;;
70132;SDS011;57495;49.922;7.966;2023-09-08T05:25:27;13.73;;;8.87;;
70132;SDS011;57495;49.922;7.966;2023-09-08T05:27:28;11.60;;;8.40;;
70132;SDS011;57495;49.922;7.966;2023-09-08T05:29:31;13.32;;;8.75;;
70132;SDS011;57495;49.922;7.966;2023-09-08T05:31:32;14.98;;;8.98;;
70132;SDS011;57495;49.922;7.966;2023-09-08T05:33:34;14.65;;;8.98;;
70132;SDS011;57495;49.922;7.966;2023-09-08T05:35:35;11.80;;;8.53;;
70132;SDS011;57495;49.922;7.966;2023-09-08T05:37:37;13.45;;;9.63;;
70132;SDS011;57495;49.922;7.966;2023-09-08T05:39:37;12.00;;;8.17;;
70132;SDS011;57495;49.922;7.966;2023-09-08T05:41:39;13.90;;;8.70;;
70132;SDS011;57495;49.922;7.966;2023-09-08T05:43:40;12.30;;;8.38;;
70132;SDS011;57495;49.922;7.966;2023-09-08T05:45:42;11.80;;;8.38;;
70132;SDS011;57495;49.922;7.966;2023-09-08T05:47:44;12.57;;;8.73;;
70132;SDS011;57495;49.922;7.966;2023-09-08T05:49:45;12.77;;;8.33;;
70132;SDS011;57495;49.922;7.966;2023-09-08T05:51:47;13.75;;;8.75;;
70132;SDS011;57495;49.922;7.966;2023-09-08T05:53:48;14.25;;;8.57;;
70132;SDS011;57495;49.922;7.966;2023-09-08T05:55:50;16.77;;;9.13;;
70132;SDS011;57495;49.922;7.966;2023-09-08T05:57:52;12.75;;;9.30;;
70132;SDS011;57495;49.922;7.966;2023-09-08T05:59:54;13.07;;;8.60;;
70132;SDS011;57495;49.922;7.966;2023-09-08T06:01:56;12.63;;;7.90;;
70132;SDS011;57495;49.922;7.966;2023-09-08T06:03:58;13.02;;;8.23;;
70132;SDS011;57495;49.922;7.966;2023-09-08T06:05:59;13.75;;;8.55;;
70132;SDS011;57495;49.922;7.966;2023-09-08T06:08:00;12.67;;;9.07;;
70132;SDS011;57495;49.922;7.966;2023-09-08T06:10:01;13.07;;;8.65;;
70132;SDS011;57495;49.922;7.966;2023-09-08T06:12:03;12.50;;;8.95;;
70132;SDS011;57495;49.922;7.966;2023-09-08T06:14:05;12.68;;;8.25;;
70132;SDS011;57495;49.922;7.966;2023-09-08T06:16:07;12.73;;;8.67;;
70132;SDS011;57495;49.922;7.966;2023-09-08T06:18:10;13.20;;;8.88;;
70132;SDS011;57495;49.922;7.966;2023-09-08T06:20:12;12.13;;;8.50;;
70132;SDS011;57495;49.922;7.966;2023-09-08T06:22:13;15.35;;;9.13;;
70132;SDS011;57495;49.922;7.966;2023-09-08T06:24:14;14.40;;;8.90;;
70132;SDS011;57495;49.922;7.966;2023-09-08T06:26:16;15.03;;;9.20;;
70132;SDS011;57495;49.922;7.966;2023-09-08T06:28:17;12.40;;;8.52;;
70132;SDS011;57495;49.922;7.966;2023-09-08T06:30:19;13.15;;;7.70;;
70132;SDS011;57495;49.922;7.966;2023-09-08T06:32:19;10.87;;;7.33;;
70132;SDS011;57495;49.922;7.966;2023-09-08T06:34:22;10.57;;;7.13;;
70132;SDS011;57495;49.922;7.966;2023-09-08T06:36:24;10.18;;;7.40;;
70132;SDS011;57495;49.922;7.966;2023-09-08T06:38:25;11.57;;;6.88;;
70132;SDS011;57495;49.922;7.966;2023-09-08T06:40:28;10.52;;;6.80;;
70132;SDS011;57495;49.922;7.966;2023-09-08T06:42:30;9.33;;;6.50;;
70132;SDS011;57495;49.922;7.966;2023-09-08T06:44:31;9.73;;;6.53;;
70132;SDS011;57495;49.922;7.966;2023-09-08T06:46:32;9.88;;;6.35;;
70132;SDS011;57495;49.922;7.966;2023-09-08T06:48:34;9.47;;;6.30;;
70132;SDS011;57495;49.922;7.966;2023-09-08T06:50:37;10.73;;;6.80;;
70132;SDS011;57495;49.922;7.966;2023-09-08T06:52:38;10.65;;;7.25;;
70132;SDS011;57495;49.922;7.966;2023-09-08T06:54:40;11.68;;;6.80;;
70132;SDS011;57495;49.922;7.966;2023-09-08T06:56:41;10.13;;;6.90;;
70132;SDS011;57495;49.922;7.966;2023-09-08T06:58:43;10.90;;;6.97;;
70132;SDS011;57495;49.922;7.966;2023-09-08T07:00:44;10.43;;;7.15;;
70132;SDS011;57495;49.922;7.966;2023-09-08T07:02:45;10.93;;;8.00;;
70132;SDS011;57495;49.922;7.966;2023-09-08T07:04:46;12.43;;;9.07;;
70132;SDS011;57495;49.922;7.966;2023-09-08T07:06:48;14.32;;;8.20;;
70132;SDS011;57495;49.922;7.966;2023-09-08T07:08:50;12.53;;;8.57;;
70132;SDS011;57495;49.922;7.966;2023-09-08T07:10:51;13.95;;;9.07;;
70132;SDS011;57495;49.922;7.966;2023-09-08T07:12:53;14.73;;;8.68;;
70132;SDS011;57495;49.922;7.966;2023-09-08T07:14:55;11.02;;;7.78;;
70132;SDS011;57495;49.922;7.966;2023-09-08T07:16:57;12.82;;;8.23;;
70132;SDS011;57495;49.922;7.966;2023-09-08T07:18:57;12.43;;;7.83;;
70132;SDS011;57495;49.922;7.966;2023-09-08T07:21:00;9.50;;;6.88;;
70132;SDS011;57495;49.922;7.966;2023-09-08T07:23:03;12.35;;;8.27;;
70132;SDS011;57495;49.922;7.966;2023-09-08T07:25:05;12.80;;;7.93;;
70132;SDS011;57495;49.922;7.966;2023-09-08T07:27:08;11.93;;;8.55;;
70132;SDS011;57495;49.922;7.966;2023-09-08T07:29:09;11.13;;;8.32;;
70132;SDS011;57495;49.922;7.966;2023-09-08T07:31:12;13.48;;;8.18;;
70132;SDS011;57495;49.922;7.966;2023-09-08T07:33:13;11.77;;;7.47;;
70132;SDS011;57495;49.922;7.966;2023-09-08T07:35:14;12.30;;;7.63;;
70132;SDS011;57495;49.922;7.966;2023-09-08T07:37:16;10.75;;;7.35;;
70132;SDS011;57495;49.922;7.966;2023-09-08T07:39:19;10.30;;;7.15;;
70132;SDS011;57495;49.922;7.966;2023-09-08T07:41:20;10.77;;;8.03;;
70132;SDS011;57495;49.922;7.966;2023-09-08T07:43:21;12.63;;;8.77;;
70132;SDS011;57495;49.922;7.966;2023-09-08T07:45:23;11.70;;;8.23;;
70132;SDS011;57495;49.922;7.966;2023-09-08T07:47:24;14.60;;;7.65;;
70132;SDS011;57495;49.922;7.966;2023-09-08T07:49:25;14.75;;;8.25;;
70132;SDS011;57495;49.922;7.966;2023-09-08T07:51:27;13.07;;;7.57;;
70132;SDS011;57495;49.922;7.966;2023-09-08T07:53:28;11.82;;;8.02;;
70132;SDS011;57495;49.922;7.966;2023-09-08T07:55:31;11.48;;;7.13;;
70132;SDS011;57495;49.922;7.966;2023-09-08T07:57:33;10.48;;;7.57;;
70132;SDS011;57495;49.922;7.966;2023-09-08T07:59:34;12.48;;;8.05;;
70132;SDS011;57495;49.922;7.966;2023-09-08T08:01:35;12.87;;;7.20;;
70132;SDS011;57495;49.922;7.966;2023-09-08T08:03:37;13.15;;;7.65;;
70132;SDS011;57495;49.922;7.966;2023-09-08T08:05:38;10.30;;;7.65;;
70132;SDS011;57495;49.922;7.966;2023-09-08T08:07:39;14.70;;;7.97;;
70132;SDS011;57495;49.922;7.966;2023-09-08T08:09:40;11.85;;;7.63;;
70132;SDS011;57495;49.922;7.966;2023-09-08T08:11:43;11.88;;;7.57;;
70132;SDS011;57495;49.922;7.966;2023-09-08T08:13:45;12.65;;;7.93;;
70132;SDS011;57495;49.922;7.966;2023-09-08T08:15:46;12.68;;;7.45;;
70132;SDS011;57495;49.922;7.966;2023-09-08T08:17:48;10.90;;;7.33;;
70132;SDS011;57495;49.922;7.966;2023-09-08T08:19:49;13.65;;;8.52;;
70132;SDS011;57495;49.922;7.966;2023-09-08T08:21:51;12.32;;;7.95;;
70132;SDS011;57495;49.922;7.966;2023-09-08T08:23:52;13.77;;;8.27;;
70132;SDS011;57495;49.922;7.966;2023-09-08T08:25:54;12.80;;;8.57;;
70132;SDS011;57495;49.922;7.966;2023-09-08T08:27:55;12.30;;;7.57;;
70132;SDS011;57495;49.922;7.966;2023-09-08T08:29:58;13.10;;;7.47;;
70132;SDS011;57495;49.922;7.966;2023-09-08T08:32:00;10.87;;;8.13;;
70132;SDS011;57495;49.922;7.966;2023-09-08T08:34:02;14.95;;;7.15;;
70132;SDS011;57495;49.922;7.966;2023-09-08T08:36:04;9.73;;;6.75;;
70132;SDS011;57495;49.922;7.966;2023-09-08T08:38:05;12.20;;;6.97;;
70132;SDS011;57495;49.922;7.966;2023-09-08T08:40:08;11.32;;;6.70;;
70132;SDS011;57495;49.922;7.966;2023-09-08T08:42:10;11.27;;;7.30;;
70132;SDS011;57495;49.922;7.966;2023-09-08T08:44:13;9.55;;;6.63;;
70132;SDS011;57495;49.922;7.966;2023-09-08T08:46:18;11.23;;;7.38;;
70132;SDS011;57495;49.922;7.966;2023-09-08T08:48:22;9.60;;;6.55;;
70132;SDS011;57495;49.922;7.966;2023-09-08T08:50:25;11.07;;;7.18;;
70132;SDS011;57495;49.922;7.966;2023-09-08T08:52:27;13.00;;;6.90;;
70132;SDS011;57495;49.922;7.966;2023-09-08T08:54:29;8.52;;;5.72;;
70132;SDS011;57495;49.922;7.966;2023-09-08T08:56:31;9.88;;;6.35;;
70132;SDS011;57495;49.922;7.966;2023-09-08T08:58:33;11.02;;;6.32;;
70132;SDS011;57495;49.922;7.966;2023-09-08T09:00:39;7.90;;;6.00;;
70132;SDS011;57495;49.922;7.966;2023-09-08T09:02:42;10.73;;;6.27;;
70132;SDS011;57495;49.922;7.966;2023-09-08T09:04:44;12.15;;;6.28;;
70132;SDS011;57495;49.922;7.966;2023-09-08T09:06:47;11.45;;;6.50;;
70132;SDS011;57495;49.922;7.966;2023-09-08T09:08:48;12.25;;;6.45;;
70132;SDS011;57495;49.922;7.966;2023-09-08T09:10:50;10.98;;;6.28;;
70132;SDS011;57495;49.922;7.966;2023-09-08T09:12:52;10.63;;;5.83;;
70132;SDS011;57495;49.922;7.966;2023-09-08T09:14:53;10.52;;;6.07;;
70132;SDS011;57495;49.922;7.966;2023-09-08T09:16:57;8.20;;;5.50;;
70132;SDS011;57495;49.922;7.966;2023-09-08T09:18:58;8.40;;;5.80;;
70132;SDS011;57495;49.922;7.966;2023-09-08T09:21:01;10.00;;;5.82;;
70132;SDS011;57495;49.922;7.966;2023-09-08T09:23:03;13.90;;;6.17;;
70132;SDS011;57495;49.922;7.966;2023-09-08T09:25:04;10.32;;;5.72;;
70132;SDS011;57495;49.922;7.966;2023-09-08T09:27:07;9.00;;;5.53;;
70132;SDS011;57495;49.922;7.966;2023-09-08T09:29:11;9.75;;;5.97;;
70132;SDS011;57495;49.922;7.966;2023-09-08T09:31:13;8.25;;;6.65;;
70132;SDS011;57495;49.922;7.966;2023-09-08T09:33:16;8.33;;;5.53;;
70132;SDS011;57495;49.922;7.966;2023-09-08T09:35:17;7.45;;;5.78;;
70132;SDS011;57495;49.922;7.966;2023-09-08T09:37:19;9.93;;;5.60;;
70132;SDS011;57495;49.922;7.966;2023-09-08T09:39:21;9.40;;;6.10;;
70132;SDS011;57495;49.922;7.966;2023-09-08T09:41:24;11.68;;;5.57;;
70132;SDS011;57495;49.922;7.966;2023-09-08T09:43:25;9.03;;;5.97;;
70132;SDS011;57495;49.922;7.966;2023-09-08T09:45:32;11.27;;;6.25;;
70132;SDS011;57495;49.922;7.966;2023-09-08T09:47:34;10.68;;;6.00;;
70132;SDS011;57495;49.922;7.966;2023-09-08T09:49:42;11.23;;;5.50;;
70132;SDS011;57495;49.922;7.966;2023-09-08T09:51:44;9.20;;;5.82;;
70132;SDS011;57495;49.922;7.966;2023-09-08T09:53:49;10.47;;;6.33;;
70132;SDS011;57495;49.922;7.966;2023-09-08T09:55:50;10.68;;;6.28;;
70132;SDS011;57495;49.922;7.966;2023-09-08T09:57:53;9.25;;;6.47;;
70132;SDS011;57495;49.922;7.966;2023-09-08T09:59:58;7.68;;;6.03;;
70132;SDS011;57495;49.922;7.966;2023-09-08T10:02:01;7.80;;;5.90;;
70132;SDS011;57495;49.922;7.966;2023-09-08T10:04:03;11.07;;;5.83;;
70132;SDS011;57495;49.922;7.966;2023-09-08T10:06:06;9.43;;;5.93;;
70132;SDS011;57495;49.922;7.966;2023-09-08T10:08:08;9.75;;;5.78;;
70132;SDS011;57495;49.922;7.966;2023-09-08T10:10:09;7.82;;;4.80;;
70132;SDS011;57495;49.922;7.966;2023-09-08T10:12:12;6.47;;;4.33;;
70132;SDS011;57495;49.922;7.966;2023-09-08T10:14:17;6.32;;;4.40;;
70132;SDS011;57495;49.922;7.966;2023-09-08T10:16:19;7.03;;;5.00;;
70132;SDS011;57495;49.922;7.966;2023-09-08T10:18:21;8.73;;;5.13;;
70132;SDS011;57495;49.922;7.966;2023-09-08T10:20:23;8.25;;;5.90;;
70132;SDS011;57495;49.922;7.966;2023-09-08T10:22:29;9.53;;;5.10;;
70132;SDS011;57495;49.922;7.966;2023-09-08T10:24:32;7.60;;;4.88;;
70132;SDS011;57495;49.922;7.966;2023-09-08T10:26:35;8.25;;;5.60;;
70132;SDS011;57495;49.922;7.966;2023-09-08T10:28:41;7.55;;;4.57;;
70132;SDS011;57495;49.922;7.966;2023-09-08T10:30:42;7.18;;;4.93;;
70132;SDS011;57495;49.922;7.966;2023-09-08T10:32:43;9.17;;;5.07;;
70132;SDS011;57495;49.922;7.966;2023-09-08T10:34:45;8.32;;;4.97;;
70132;SDS011;57495;49.922;7.966;2023-09-08T10:36:48;10.45;;;4.80;;
70132;SDS011;57495;49.922;7.966;2023-09-08T10:38:51;8.30;;;4.65;;
70132;SDS011;57495;49.922;7.966;2023-09-08T10:43:29;7.10;;;4.63;;
70132;SDS011;57495;49.922;7.966;2023-09-08T10:45:30;7.38;;;5.40;;
70132;SDS011;57495;49.922;7.966;2023-09-08T10:47:32;9.30;;;5.18;;
70132;SDS011;57495;49.922;7.966;2023-09-08T10:49:40;8.52;;;4.97;;
70132;SDS011;57495;49.922;7.966;2023-09-08T10:51:42;7.65;;;5.05;;
70132;SDS011;57495;49.922;7.966;2023-09-08T10:53:46;8.90;;;4.80;;
70132;SDS011;57495;49.922;7.966;2023-09-08T10:55:52;8.88;;;4.88;;
70132;SDS011;57495;49.922;7.966;2023-09-08T10:57:54;9.18;;;5.20;;
70132;SDS011;57495;49.922;7.966;2023-09-08T10:59:55;8.23;;;4.60;;
70132;SDS011;57495;49.922;7.966;2023-09-08T11:02:02;8.05;;;4.60;;
70132;SDS011;57495;49.922;7.966;2023-09-08T11:04:04;6.90;;;4.63;;
70132;SDS011;57495;49.922;7.966;2023-09-08T11:06:09;7.75;;;5.07;;
70132;SDS011;57495;49.922;7.966;2023-09-08T11:08:10;8.65;;;4.95;;
70132;SDS011;57495;49.922;7.966;2023-09-08T11:10:12;6.15;;;4.40;;
70132;SDS011;57495;49.922;7.966;2023-09-08T11:12:17;6.47;;;4.30;;
70132;SDS011;57495;49.922;7.966;2023-09-08T11:14:18;6.20;;;4.18;;
70132;SDS011;57495;49.922;7.966;2023-09-08T11:16:19;6.93;;;4.63;;
70132;SDS011;57495;49.922;7.966;2023-09-08T11:18:29;7.45;;;4.32;;
70132;SDS011;57495;49.922;7.966;2023-09-08T11:20:31;6.32;;;4.50;;
70132;SDS011;57495;49.922;7.966;2023-09-08T11:22:33;8.43;;;5.13;;
70132;SDS011;57495;49.922;7.966;2023-09-08T11:24:35;7.85;;;5.10;;
70132;SDS011;57495;49.922;7.966;2023-09-08T11:26:37;8.70;;;4.30;;
70132;SDS011;57495;49.922;7.966;2023-09-08T11:28:40;10.27;;;5.38;;
70132;SDS011;57495;49.922;7.966;2023-09-08T11:30:42;8.07;;;4.85;;
70132;SDS011;57495;49.922;7.966;2023-09-08T11:32:43;9.43;;;5.27;;
70132;SDS011;57495;49.922;7.966;2023-09-08T11:34:45;8.07;;;5.43;;
70132;SDS011;57495;49.922;7.966;2023-09-08T11:36:46;8.77;;;4.90;;
70132;SDS011;57495;49.922;7.966;2023-09-08T11:38:47;9.70;;;4.95;;
70132;SDS011;57495;49.922;7.966;2023-09-08T11:40:49;6.67;;;4.67;;
70132;SDS011;57495;49.922;7.966;2023-09-08T11:42:50;6.70;;;4.68;;
70132;SDS011;57495;49.922;7.966;2023-09-08T11:44:56;7.85;;;4.35;;
70132;SDS011;57495;49.922;7.966;2023-09-08T11:46:58;10.23;;;4.60;;
70132;SDS011;57495;49.922;7.966;2023-09-08T11:48:59;7.00;;;5.03;;
70132;SDS011;57495;49.922;7.966;2023-09-08T11:51:01;6.97;;;4.97;;
70132;SDS011;57495;49.922;7.966;2023-09-08T11:53:02;8.68;;;5.15;;
70132;SDS011;57495;49.922;7.966;2023-09-08T11:55:04;7.25;;;4.57;;
70132;SDS011;57495;49.922;7.966;2023-09-08T11:57:05;8.05;;;5.35;;
70132;SDS011;57495;49.922;7.966;2023-09-08T11:59:07;6.45;;;4.78;;
70132;SDS011;57495;49.922;7.966;2023-09-08T12:01:11;8.70;;;4.97;;
70132;SDS011;57495;49.922;7.966;2023-09-08T12:03:14;7.82;;;4.78;;
70132;SDS011;57495;49.922;7.966;2023-09-08T12:05:20;9.00;;;4.75;;
70132;SDS011;57495;49.922;7.966;2023-09-08T12:07:22;7.75;;;4.80;;
70132;SDS011;57495;49.922;7.966;2023-09-08T12:09:23;6.77;;;4.93;;
70132;SDS011;57495;49.922;7.966;2023-09-08T12:11:25;7.75;;;4.32;;